sensor_id;sensor_type;location;lat;lon;timestamp;P1;durP1;ratioP1;P2;durP2;ratioP2
49235;SDS011;35067;48.134;8.378;2024-03-25T00:00:17;4.03;;;2.60;;
49235;SDS011;35067;48.134;8.378;2024-03-25T00:01:20;5.22;;;2.30;;
49235;SDS011;35067;48.134;8.378;2024-03-25T00:02:21;3.67;;;2.17;;
49235;SDS011;35067;48.134;8.378;2024-03-25T00:03:21;5.37;;;2.40;;
49235;SDS011;35067;48.134;8.378;2024-03-25T00:04:22;7.00;;;3.17;;
49235;SDS011;35067;48.134;8.378;2024-03-25T00:05:23;5.47;;;2.20;;
49235;SDS011;35067;48.134;8.378;2024-03-25T00:06:25;3.95;;;1.92;;
49235;SDS011;35067;48.134;8.378;2024-03-25T00:07:26;5.13;;;2.70;;
49235;SDS011;35067;48.134;8.378;2024-03-25T00:08:26;5.13;;;2.63;;
49235;SDS011;35067;48.134;8.378;2024-03-25T00:09:27;4.20;;;2.20;;
49235;SDS011;35067;48.134;8.378;2024-03-25T00:10:28;4.87;;;3.37;;
49235;SDS011;35067;48.134;8.378;2024-03-25T00:11:29;4.03;;;2.50;;
49235;SDS011;35067;48.134;8.378;2024-03-25T00:12:29;8.63;;;3.07;;
49235;SDS011;35067;48.134;8.378;2024-03-25T00:13:30;4.67;;;2.37;;
49235;SDS011;35067;48.134;8.378;2024-03-25T00:14:31;4.77;;;2.37;;
49235;SDS011;35067;48.134;8.378;2024-03-25T00:15:32;4.60;;;2.70;;
49235;SDS011;35067;48.134;8.378;2024-03-25T00:16:34;6.47;;;2.13;;
49235;SDS011;35067;48.134;8.378;2024-03-25T00:17:35;5.65;;;2.42;;
49235;SDS011;35067;48.134;8.378;2024-03-25T00:18:36;6.13;;;2.47;;
49235;SDS011;35067;48.134;8.378;2024-03-25T00:19:36;4.63;;;2.30;;
49235;SDS011;35067;48.134;8.378;2024-03-25T00:20:37;4.97;;;2.00;;
49235;SDS011;35067;48.134;8.378;2024-03-25T00:21:39;7.10;;;2.95;;
49235;SDS011;35067;48.134;8.378;2024-03-25T00:22:39;4.00;;;2.43;;
49235;SDS011;35067;48.134;8.378;2024-03-25T00:23:41;4.38;;;2.58;;
49235;SDS011;35067;48.134;8.378;2024-03-25T00:24:41;6.87;;;2.47;;
49235;SDS011;35067;48.134;8.378;2024-03-25T00:25:42;6.93;;;2.87;;
49235;SDS011;35067;48.134;8.378;2024-03-25T00:26:42;3.90;;;2.80;;
49235;SDS011;35067;48.134;8.378;2024-03-25T00:27:43;5.97;;;3.07;;
49235;SDS011;35067;48.134;8.378;2024-03-25T00:28:44;5.83;;;2.97;;
49235;SDS011;35067;48.134;8.378;2024-03-25T00:29:44;7.77;;;2.67;;
49235;SDS011;35067;48.134;8.378;2024-03-25T00:30:45;4.10;;;3.03;;
49235;SDS011;35067;48.134;8.378;2024-03-25T00:31:46;5.63;;;2.43;;
49235;SDS011;35067;48.134;8.378;2024-03-25T00:32:46;7.63;;;2.50;;
49235;SDS011;35067;48.134;8.378;2024-03-25T00:33:47;5.20;;;2.60;;
49235;SDS011;35067;48.134;8.378;2024-03-25T00:34:48;3.43;;;3.03;;
49235;SDS011;35067;48.134;8.378;2024-03-25T00:35:48;4.93;;;2.83;;
49235;SDS011;35067;48.134;8.378;2024-03-25T00:36:49;3.93;;;2.30;;
49235;SDS011;35067;48.134;8.378;2024-03-25T00:37:50;7.50;;;3.00;;
49235;SDS011;35067;48.134;8.378;2024-03-25T00:38:51;5.93;;;2.80;;
49235;SDS011;35067;48.134;8.378;2024-03-25T00:39:51;4.00;;;2.47;;
49235;SDS011;35067;48.134;8.378;2024-03-25T00:40:52;4.90;;;3.03;;
49235;SDS011;35067;48.134;8.378;2024-03-25T00:41:53;6.40;;;3.10;;
49235;SDS011;35067;48.134;8.378;2024-03-25T00:42:54;6.75;;;3.22;;
49235;SDS011;35067;48.134;8.378;2024-03-25T00:43:55;4.50;;;2.67;;
49235;SDS011;35067;48.134;8.378;2024-03-25T00:44:55;7.33;;;2.80;;
49235;SDS011;35067;48.134;8.378;2024-03-25T00:45:56;5.27;;;2.80;;
49235;SDS011;35067;48.134;8.378;2024-03-25T00:46:57;5.47;;;2.93;;
49235;SDS011;35067;48.134;8.378;2024-03-25T00:47:58;3.27;;;2.43;;
49235;SDS011;35067;48.134;8.378;2024-03-25T00:48:59;5.35;;;2.95;;
49235;SDS011;35067;48.134;8.378;2024-03-25T00:50:00;5.03;;;2.70;;
49235;SDS011;35067;48.134;8.378;2024-03-25T00:51:01;7.43;;;3.97;;
49235;SDS011;35067;48.134;8.378;2024-03-25T00:52:01;7.10;;;3.13;;
49235;SDS011;35067;48.134;8.378;2024-03-25T00:53:02;7.47;;;4.25;;
49235;SDS011;35067;48.134;8.378;2024-03-25T00:54:03;5.47;;;3.30;;
49235;SDS011;35067;48.134;8.378;2024-03-25T00:55:04;6.18;;;3.30;;
49235;SDS011;35067;48.134;8.378;2024-03-25T00:56:05;5.43;;;2.78;;
49235;SDS011;35067;48.134;8.378;2024-03-25T00:57:06;5.37;;;3.20;;
49235;SDS011;35067;48.134;8.378;2024-03-25T00:58:07;7.00;;;3.17;;
49235;SDS011;35067;48.134;8.378;2024-03-25T00:59:08;5.90;;;3.23;;
49235;SDS011;35067;48.134;8.378;2024-03-25T01:00:09;6.37;;;3.83;;
49235;SDS011;35067;48.134;8.378;2024-03-25T01:01:10;5.65;;;3.03;;
49235;SDS011;35067;48.134;8.378;2024-03-25T01:02:11;6.95;;;3.50;;
49235;SDS011;35067;48.134;8.378;2024-03-25T01:03:12;6.93;;;3.10;;
49235;SDS011;35067;48.134;8.378;2024-03-25T01:04:13;4.87;;;2.80;;
49235;SDS011;35067;48.134;8.378;2024-03-25T01:05:13;5.07;;;2.97;;
49235;SDS011;35067;48.134;8.378;2024-03-25T01:06:14;4.40;;;3.00;;
49235;SDS011;35067;48.134;8.378;2024-03-25T01:07:15;5.60;;;3.43;;
49235;SDS011;35067;48.134;8.378;2024-03-25T01:08:15;5.53;;;3.10;;
49235;SDS011;35067;48.134;8.378;2024-03-25T01:09:16;5.93;;;3.20;;
49235;SDS011;35067;48.134;8.378;2024-03-25T01:10:18;7.28;;;3.35;;
49235;SDS011;35067;48.134;8.378;2024-03-25T01:11:18;4.73;;;3.40;;
49235;SDS011;35067;48.134;8.378;2024-03-25T01:12:19;4.63;;;2.90;;
49235;SDS011;35067;48.134;8.378;2024-03-25T01:13:20;6.80;;;2.77;;
49235;SDS011;35067;48.134;8.378;2024-03-25T01:14:21;8.67;;;3.80;;
49235;SDS011;35067;48.134;8.378;2024-03-25T01:15:21;5.40;;;3.27;;
49235;SDS011;35067;48.134;8.378;2024-03-25T01:16:22;6.95;;;3.58;;
49235;SDS011;35067;48.134;8.378;2024-03-25T01:17:23;3.67;;;2.67;;
49235;SDS011;35067;48.134;8.378;2024-03-25T01:18:24;5.20;;;3.50;;
49235;SDS011;35067;48.134;8.378;2024-03-25T01:19:24;5.73;;;3.07;;
49235;SDS011;35067;48.134;8.378;2024-03-25T01:20:26;9.40;;;3.47;;
49235;SDS011;35067;48.134;8.378;2024-03-25T01:21:26;6.07;;;2.97;;
49235;SDS011;35067;48.134;8.378;2024-03-25T01:22:27;8.03;;;3.40;;
49235;SDS011;35067;48.134;8.378;2024-03-25T01:23:27;4.83;;;2.87;;
49235;SDS011;35067;48.134;8.378;2024-03-25T01:24:28;4.93;;;3.20;;
49235;SDS011;35067;48.134;8.378;2024-03-25T01:25:30;7.95;;;3.53;;
49235;SDS011;35067;48.134;8.378;2024-03-25T01:26:31;5.40;;;2.90;;
49235;SDS011;35067;48.134;8.378;2024-03-25T01:27:32;5.43;;;3.30;;
49235;SDS011;35067;48.134;8.378;2024-03-25T01:28:32;4.13;;;2.70;;
49235;SDS011;35067;48.134;8.378;2024-03-25T01:29:33;6.87;;;3.27;;
49235;SDS011;35067;48.134;8.378;2024-03-25T01:30:34;6.93;;;3.53;;
49235;SDS011;35067;48.134;8.378;2024-03-25T01:31:35;5.47;;;3.42;;
49235;SDS011;35067;48.134;8.378;2024-03-25T01:32:36;12.37;;;4.10;;
49235;SDS011;35067;48.134;8.378;2024-03-25T01:33:36;8.37;;;3.80;;
49235;SDS011;35067;48.134;8.378;2024-03-25T01:34:37;8.73;;;3.77;;
49235;SDS011;35067;48.134;8.378;2024-03-25T01:35:38;5.43;;;3.00;;
49235;SDS011;35067;48.134;8.378;2024-03-25T01:36:38;6.43;;;3.40;;
49235;SDS011;35067;48.134;8.378;2024-03-25T01:37:39;5.40;;;3.20;;
49235;SDS011;35067;48.134;8.378;2024-03-25T01:38:40;6.40;;;3.30;;
49235;SDS011;35067;48.134;8.378;2024-03-25T01:39:41;5.43;;;3.47;;
49235;SDS011;35067;48.134;8.378;2024-03-25T01:40:41;8.93;;;3.47;;
49235;SDS011;35067;48.134;8.378;2024-03-25T01:41:42;5.40;;;3.50;;
49235;SDS011;35067;48.134;8.378;2024-03-25T01:42:43;6.07;;;2.93;;
49235;SDS011;35067;48.134;8.378;2024-03-25T01:43:44;4.90;;;2.70;;
49235;SDS011;35067;48.134;8.378;2024-03-25T01:44:45;5.93;;;3.30;;
49235;SDS011;35067;48.134;8.378;2024-03-25T01:45:47;7.05;;;3.05;;
49235;SDS011;35067;48.134;8.378;2024-03-25T01:46:48;6.07;;;3.10;;
49235;SDS011;35067;48.134;8.378;2024-03-25T01:47:49;6.40;;;3.30;;
49235;SDS011;35067;48.134;8.378;2024-03-25T01:48:51;4.78;;;2.78;;
49235;SDS011;35067;48.134;8.378;2024-03-25T01:49:53;5.10;;;3.00;;
49235;SDS011;35067;48.134;8.378;2024-03-25T01:50:56;8.13;;;3.72;;
49235;SDS011;35067;48.134;8.378;2024-03-25T01:51:58;9.68;;;3.72;;
49235;SDS011;35067;48.134;8.378;2024-03-25T01:52:59;5.60;;;3.40;;
49235;SDS011;35067;48.134;8.378;2024-03-25T01:54:00;7.17;;;3.33;;
49235;SDS011;35067;48.134;8.378;2024-03-25T01:55:01;4.50;;;3.17;;
49235;SDS011;35067;48.134;8.378;2024-03-25T01:56:03;7.28;;;3.17;;
49235;SDS011;35067;48.134;8.378;2024-03-25T01:57:05;6.95;;;3.67;;
49235;SDS011;35067;48.134;8.378;2024-03-25T01:58:06;9.10;;;4.35;;
49235;SDS011;35067;48.134;8.378;2024-03-25T01:59:07;6.70;;;4.03;;
49235;SDS011;35067;48.134;8.378;2024-03-25T02:00:08;7.00;;;4.33;;
49235;SDS011;35067;48.134;8.378;2024-03-25T02:01:09;8.07;;;4.10;;
49235;SDS011;35067;48.134;8.378;2024-03-25T02:02:14;8.43;;;3.70;;
49235;SDS011;35067;48.134;8.378;2024-03-25T02:03:15;5.20;;;3.20;;
49235;SDS011;35067;48.134;8.378;2024-03-25T02:04:15;7.00;;;3.67;;
49235;SDS011;35067;48.134;8.378;2024-03-25T02:05:17;6.20;;;3.63;;
49235;SDS011;35067;48.134;8.378;2024-03-25T02:06:18;5.47;;;3.13;;
49235;SDS011;35067;48.134;8.378;2024-03-25T02:07:21;6.32;;;2.88;;
49235;SDS011;35067;48.134;8.378;2024-03-25T02:08:24;7.47;;;3.40;;
49235;SDS011;35067;48.134;8.378;2024-03-25T02:09:27;5.47;;;3.42;;
49235;SDS011;35067;48.134;8.378;2024-03-25T02:10:28;11.13;;;4.32;;
49235;SDS011;35067;48.134;8.378;2024-03-25T02:11:29;5.07;;;2.97;;
49235;SDS011;35067;48.134;8.378;2024-03-25T02:12:31;4.88;;;2.72;;
49235;SDS011;35067;48.134;8.378;2024-03-25T02:13:32;9.05;;;3.45;;
49235;SDS011;35067;48.134;8.378;2024-03-25T02:14:35;6.43;;;3.90;;
49235;SDS011;35067;48.134;8.378;2024-03-25T02:15:36;6.13;;;3.13;;
49235;SDS011;35067;48.134;8.378;2024-03-25T02:16:37;4.90;;;3.37;;
49235;SDS011;35067;48.134;8.378;2024-03-25T02:17:37;6.10;;;3.40;;
49235;SDS011;35067;48.134;8.378;2024-03-25T02:18:39;4.82;;;2.88;;
49235;SDS011;35067;48.134;8.378;2024-03-25T02:19:39;7.33;;;3.10;;
49235;SDS011;35067;48.134;8.378;2024-03-25T02:20:41;6.65;;;3.53;;
49235;SDS011;35067;48.134;8.378;2024-03-25T02:21:42;5.77;;;3.47;;
49235;SDS011;35067;48.134;8.378;2024-03-25T02:22:42;4.20;;;2.57;;
49235;SDS011;35067;48.134;8.378;2024-03-25T02:23:43;5.23;;;3.07;;
49235;SDS011;35067;48.134;8.378;2024-03-25T02:24:45;6.90;;;2.78;;
49235;SDS011;35067;48.134;8.378;2024-03-25T02:25:53;6.53;;;3.50;;
49235;SDS011;35067;48.134;8.378;2024-03-25T02:26:54;4.30;;;3.03;;
49235;SDS011;35067;48.134;8.378;2024-03-25T02:27:54;5.73;;;3.23;;
49235;SDS011;35067;48.134;8.378;2024-03-25T02:28:55;7.57;;;3.33;;
49235;SDS011;35067;48.134;8.378;2024-03-25T02:30:01;7.33;;;3.47;;
49235;SDS011;35067;48.134;8.378;2024-03-25T02:31:11;6.22;;;3.13;;
49235;SDS011;35067;48.134;8.378;2024-03-25T02:32:11;5.37;;;3.60;;
49235;SDS011;35067;48.134;8.378;2024-03-25T02:33:12;5.00;;;2.83;;
49235;SDS011;35067;48.134;8.378;2024-03-25T02:34:14;5.72;;;3.20;;
49235;SDS011;35067;48.134;8.378;2024-03-25T02:35:15;8.37;;;3.90;;
49235;SDS011;35067;48.134;8.378;2024-03-25T02:36:17;5.13;;;3.03;;
49235;SDS011;35067;48.134;8.378;2024-03-25T02:37:18;7.17;;;2.83;;
49235;SDS011;35067;48.134;8.378;2024-03-25T02:38:19;5.75;;;2.90;;
49235;SDS011;35067;48.134;8.378;2024-03-25T02:39:20;6.87;;;3.60;;
49235;SDS011;35067;48.134;8.378;2024-03-25T02:40:20;6.13;;;3.03;;
49235;SDS011;35067;48.134;8.378;2024-03-25T02:41:22;7.90;;;3.95;;
49235;SDS011;35067;48.134;8.378;2024-03-25T02:42:28;6.75;;;4.00;;
49235;SDS011;35067;48.134;8.378;2024-03-25T02:43:29;5.32;;;3.25;;
49235;SDS011;35067;48.134;8.378;2024-03-25T02:44:30;4.53;;;3.08;;
49235;SDS011;35067;48.134;8.378;2024-03-25T02:45:31;8.50;;;3.10;;
49235;SDS011;35067;48.134;8.378;2024-03-25T02:46:32;6.73;;;3.30;;
49235;SDS011;35067;48.134;8.378;2024-03-25T02:47:34;4.82;;;2.72;;
49235;SDS011;35067;48.134;8.378;2024-03-25T02:48:35;6.70;;;3.30;;
49235;SDS011;35067;48.134;8.378;2024-03-25T02:49:35;6.00;;;3.43;;
49235;SDS011;35067;48.134;8.378;2024-03-25T02:50:36;9.63;;;3.30;;
49235;SDS011;35067;48.134;8.378;2024-03-25T02:51:37;4.40;;;3.00;;
49235;SDS011;35067;48.134;8.378;2024-03-25T02:52:37;5.27;;;2.90;;
49235;SDS011;35067;48.134;8.378;2024-03-25T02:53:38;6.40;;;3.30;;
49235;SDS011;35067;48.134;8.378;2024-03-25T02:54:39;9.17;;;3.70;;
49235;SDS011;35067;48.134;8.378;2024-03-25T02:55:39;7.77;;;3.60;;
49235;SDS011;35067;48.134;8.378;2024-03-25T02:56:40;5.70;;;3.13;;
49235;SDS011;35067;48.134;8.378;2024-03-25T02:57:41;5.80;;;3.00;;
49235;SDS011;35067;48.134;8.378;2024-03-25T02:58:41;5.73;;;3.43;;
49235;SDS011;35067;48.134;8.378;2024-03-25T02:59:42;5.00;;;2.93;;
49235;SDS011;35067;48.134;8.378;2024-03-25T03:00:43;4.43;;;3.17;;
49235;SDS011;35067;48.134;8.378;2024-03-25T03:01:43;4.93;;;2.70;;
49235;SDS011;35067;48.134;8.378;2024-03-25T03:02:44;7.37;;;3.00;;
49235;SDS011;35067;48.134;8.378;2024-03-25T03:03:45;5.33;;;2.97;;
49235;SDS011;35067;48.134;8.378;2024-03-25T03:04:45;6.30;;;3.07;;
49235;SDS011;35067;48.134;8.378;2024-03-25T03:05:46;7.70;;;3.30;;
49235;SDS011;35067;48.134;8.378;2024-03-25T03:06:47;8.73;;;3.07;;
49235;SDS011;35067;48.134;8.378;2024-03-25T03:07:47;3.63;;;2.93;;
49235;SDS011;35067;48.134;8.378;2024-03-25T03:08:48;4.47;;;3.13;;
49235;SDS011;35067;48.134;8.378;2024-03-25T03:09:49;6.93;;;3.03;;
49235;SDS011;35067;48.134;8.378;2024-03-25T03:10:49;8.33;;;3.37;;
49235;SDS011;35067;48.134;8.378;2024-03-25T03:11:50;5.10;;;3.07;;
49235;SDS011;35067;48.134;8.378;2024-03-25T03:12:51;4.93;;;2.63;;
49235;SDS011;35067;48.134;8.378;2024-03-25T03:13:51;6.33;;;2.83;;
49235;SDS011;35067;48.134;8.378;2024-03-25T03:14:52;5.67;;;2.90;;
49235;SDS011;35067;48.134;8.378;2024-03-25T03:15:52;4.00;;;2.90;;
49235;SDS011;35067;48.134;8.378;2024-03-25T03:16:53;6.87;;;2.97;;
49235;SDS011;35067;48.134;8.378;2024-03-25T03:17:56;5.85;;;3.40;;
49235;SDS011;35067;48.134;8.378;2024-03-25T03:18:57;9.30;;;3.40;;
49235;SDS011;35067;48.134;8.378;2024-03-25T03:19:58;6.93;;;3.57;;
49235;SDS011;35067;48.134;8.378;2024-03-25T03:20:58;6.77;;;3.03;;
49235;SDS011;35067;48.134;8.378;2024-03-25T03:21:59;5.07;;;3.13;;
49235;SDS011;35067;48.134;8.378;2024-03-25T03:23:00;5.67;;;3.20;;
49235;SDS011;35067;48.134;8.378;2024-03-25T03:24:00;4.77;;;3.37;;
49235;SDS011;35067;48.134;8.378;2024-03-25T03:25:01;6.20;;;3.30;;
49235;SDS011;35067;48.134;8.378;2024-03-25T03:26:02;5.60;;;3.00;;
49235;SDS011;35067;48.134;8.378;2024-03-25T03:27:03;8.13;;;3.10;;
49235;SDS011;35067;48.134;8.378;2024-03-25T03:28:04;5.20;;;3.03;;
49235;SDS011;35067;48.134;8.378;2024-03-25T03:29:05;9.77;;;3.27;;
49235;SDS011;35067;48.134;8.378;2024-03-25T03:30:06;4.80;;;2.80;;
49235;SDS011;35067;48.134;8.378;2024-03-25T03:31:07;9.40;;;3.88;;
49235;SDS011;35067;48.134;8.378;2024-03-25T03:32:07;6.43;;;3.13;;
49235;SDS011;35067;48.134;8.378;2024-03-25T03:33:08;9.90;;;3.03;;
49235;SDS011;35067;48.134;8.378;2024-03-25T03:34:09;6.00;;;2.90;;
49235;SDS011;35067;48.134;8.378;2024-03-25T03:35:09;9.10;;;3.17;;
49235;SDS011;35067;48.134;8.378;2024-03-25T03:36:10;7.50;;;3.57;;
49235;SDS011;35067;48.134;8.378;2024-03-25T03:37:11;5.30;;;3.30;;
49235;SDS011;35067;48.134;8.378;2024-03-25T03:38:12;5.60;;;3.73;;
49235;SDS011;35067;48.134;8.378;2024-03-25T03:39:12;6.93;;;3.10;;
49235;SDS011;35067;48.134;8.378;2024-03-25T03:40:13;6.43;;;3.30;;
49235;SDS011;35067;48.134;8.378;2024-03-25T03:41:14;8.27;;;3.77;;
49235;SDS011;35067;48.134;8.378;2024-03-25T03:42:15;6.13;;;2.93;;
49235;SDS011;35067;48.134;8.378;2024-03-25T03:43:15;5.63;;;2.90;;
49235;SDS011;35067;48.134;8.378;2024-03-25T03:44:16;7.00;;;3.13;;
49235;SDS011;35067;48.134;8.378;2024-03-25T03:45:17;5.93;;;3.60;;
49235;SDS011;35067;48.134;8.378;2024-03-25T03:46:18;5.60;;;3.13;;
49235;SDS011;35067;48.134;8.378;2024-03-25T03:47:18;7.70;;;2.93;;
49235;SDS011;35067;48.134;8.378;2024-03-25T03:48:19;5.23;;;2.70;;
49235;SDS011;35067;48.134;8.378;2024-03-25T03:49:20;5.07;;;3.17;;
49235;SDS011;35067;48.134;8.378;2024-03-25T03:50:20;8.63;;;3.63;;
49235;SDS011;35067;48.134;8.378;2024-03-25T03:51:21;6.93;;;3.27;;
49235;SDS011;35067;48.134;8.378;2024-03-25T03:52:22;7.10;;;4.13;;
49235;SDS011;35067;48.134;8.378;2024-03-25T03:53:23;5.83;;;3.30;;
49235;SDS011;35067;48.134;8.378;2024-03-25T03:54:23;5.73;;;2.93;;
49235;SDS011;35067;48.134;8.378;2024-03-25T03:55:24;5.60;;;3.00;;
49235;SDS011;35067;48.134;8.378;2024-03-25T03:56:24;6.00;;;3.67;;
49235;SDS011;35067;48.134;8.378;2024-03-25T03:57:25;9.67;;;3.33;;
49235;SDS011;35067;48.134;8.378;2024-03-25T03:58:26;7.13;;;3.20;;
49235;SDS011;35067;48.134;8.378;2024-03-25T03:59:27;7.90;;;3.30;;
49235;SDS011;35067;48.134;8.378;2024-03-25T04:00:27;3.90;;;3.13;;
49235;SDS011;35067;48.134;8.378;2024-03-25T04:01:28;6.97;;;3.47;;
49235;SDS011;35067;48.134;8.378;2024-03-25T04:02:29;6.27;;;3.10;;
49235;SDS011;35067;48.134;8.378;2024-03-25T04:03:29;7.00;;;3.43;;
49235;SDS011;35067;48.134;8.378;2024-03-25T04:04:30;5.68;;;3.28;;
49235;SDS011;35067;48.134;8.378;2024-03-25T04:05:31;7.77;;;3.23;;
49235;SDS011;35067;48.134;8.378;2024-03-25T04:06:32;6.60;;;3.00;;
49235;SDS011;35067;48.134;8.378;2024-03-25T04:07:32;4.47;;;2.43;;
49235;SDS011;35067;48.134;8.378;2024-03-25T04:08:33;5.70;;;3.10;;
49235;SDS011;35067;48.134;8.378;2024-03-25T04:09:34;4.40;;;2.83;;
49235;SDS011;35067;48.134;8.378;2024-03-25T04:10:35;7.50;;;3.80;;
49235;SDS011;35067;48.134;8.378;2024-03-25T04:11:36;4.80;;;3.15;;
49235;SDS011;35067;48.134;8.378;2024-03-25T04:12:37;6.33;;;3.27;;
49235;SDS011;35067;48.134;8.378;2024-03-25T04:13:39;4.57;;;2.97;;
49235;SDS011;35067;48.134;8.378;2024-03-25T04:14:40;5.43;;;3.77;;
49235;SDS011;35067;48.134;8.378;2024-03-25T04:15:40;6.10;;;3.23;;
49235;SDS011;35067;48.134;8.378;2024-03-25T04:16:43;8.98;;;3.55;;
49235;SDS011;35067;48.134;8.378;2024-03-25T04:17:44;6.53;;;3.27;;
49235;SDS011;35067;48.134;8.378;2024-03-25T04:18:47;6.10;;;3.97;;
49235;SDS011;35067;48.134;8.378;2024-03-25T04:19:50;4.97;;;3.85;;
49235;SDS011;35067;48.134;8.378;2024-03-25T04:20:51;6.25;;;3.70;;
49235;SDS011;35067;48.134;8.378;2024-03-25T04:21:54;6.40;;;4.17;;
49235;SDS011;35067;48.134;8.378;2024-03-25T04:22:56;9.88;;;4.57;;
49235;SDS011;35067;48.134;8.378;2024-03-25T04:23:57;7.05;;;4.40;;
49235;SDS011;35067;48.134;8.378;2024-03-25T04:24:57;6.00;;;4.23;;
49235;SDS011;35067;48.134;8.378;2024-03-25T04:26:00;7.10;;;4.00;;
49235;SDS011;35067;48.134;8.378;2024-03-25T04:27:02;8.05;;;4.00;;
49235;SDS011;35067;48.134;8.378;2024-03-25T04:28:03;6.70;;;4.10;;
49235;SDS011;35067;48.134;8.378;2024-03-25T04:29:08;6.72;;;3.80;;
49235;SDS011;35067;48.134;8.378;2024-03-25T04:30:09;5.93;;;4.17;;
49235;SDS011;35067;48.134;8.378;2024-03-25T04:31:11;7.53;;;3.75;;
49235;SDS011;35067;48.134;8.378;2024-03-25T04:32:12;6.33;;;3.40;;
49235;SDS011;35067;48.134;8.378;2024-03-25T04:33:13;4.70;;;3.27;;
49235;SDS011;35067;48.134;8.378;2024-03-25T04:34:13;6.37;;;3.57;;
49235;SDS011;35067;48.134;8.378;2024-03-25T04:35:14;11.90;;;4.77;;
49235;SDS011;35067;48.134;8.378;2024-03-25T04:36:15;6.73;;;4.43;;
49235;SDS011;35067;48.134;8.378;2024-03-25T04:37:15;8.13;;;4.80;;
49235;SDS011;35067;48.134;8.378;2024-03-25T04:38:16;7.97;;;5.03;;
49235;SDS011;35067;48.134;8.378;2024-03-25T04:39:17;6.87;;;4.20;;
49235;SDS011;35067;48.134;8.378;2024-03-25T04:40:18;6.45;;;4.13;;
49235;SDS011;35067;48.134;8.378;2024-03-25T04:41:19;8.50;;;5.50;;
49235;SDS011;35067;48.134;8.378;2024-03-25T04:42:23;7.43;;;5.27;;
49235;SDS011;35067;48.134;8.378;2024-03-25T04:43:24;7.93;;;5.47;;
49235;SDS011;35067;48.134;8.378;2024-03-25T04:44:25;8.93;;;5.37;;
49235;SDS011;35067;48.134;8.378;2024-03-25T04:45:25;11.83;;;6.07;;
49235;SDS011;35067;48.134;8.378;2024-03-25T04:46:26;8.73;;;5.60;;
49235;SDS011;35067;48.134;8.378;2024-03-25T04:47:27;12.13;;;4.40;;
49235;SDS011;35067;48.134;8.378;2024-03-25T04:48:27;7.73;;;4.10;;
49235;SDS011;35067;48.134;8.378;2024-03-25T04:49:28;6.73;;;3.80;;
49235;SDS011;35067;48.134;8.378;2024-03-25T04:50:30;5.67;;;3.90;;
49235;SDS011;35067;48.134;8.378;2024-03-25T04:51:30;5.78;;;3.50;;
49235;SDS011;35067;48.134;8.378;2024-03-25T04:52:31;6.60;;;3.00;;
49235;SDS011;35067;48.134;8.378;2024-03-25T04:53:32;6.70;;;3.03;;
49235;SDS011;35067;48.134;8.378;2024-03-25T04:54:33;3.63;;;2.77;;
49235;SDS011;35067;48.134;8.378;2024-03-25T04:55:33;4.20;;;3.23;;
49235;SDS011;35067;48.134;8.378;2024-03-25T04:56:34;4.57;;;3.07;;
49235;SDS011;35067;48.134;8.378;2024-03-25T04:57:35;6.00;;;4.70;;
49235;SDS011;35067;48.134;8.378;2024-03-25T04:58:35;6.87;;;4.50;;
49235;SDS011;35067;48.134;8.378;2024-03-25T04:59:36;9.30;;;5.13;;
49235;SDS011;35067;48.134;8.378;2024-03-25T05:00:37;11.03;;;5.53;;
49235;SDS011;35067;48.134;8.378;2024-03-25T05:01:37;7.63;;;6.17;;
49235;SDS011;35067;48.134;8.378;2024-03-25T05:02:38;8.47;;;4.90;;
49235;SDS011;35067;48.134;8.378;2024-03-25T05:03:39;6.87;;;4.70;;
49235;SDS011;35067;48.134;8.378;2024-03-25T05:04:39;9.47;;;5.87;;
49235;SDS011;35067;48.134;8.378;2024-03-25T05:05:40;9.17;;;5.00;;
49235;SDS011;35067;48.134;8.378;2024-03-25T05:06:41;9.10;;;4.50;;
49235;SDS011;35067;48.134;8.378;2024-03-25T05:07:41;7.17;;;4.63;;
49235;SDS011;35067;48.134;8.378;2024-03-25T05:08:42;8.53;;;5.23;;
49235;SDS011;35067;48.134;8.378;2024-03-25T05:09:43;9.23;;;4.87;;
49235;SDS011;35067;48.134;8.378;2024-03-25T05:10:44;9.52;;;4.95;;
49235;SDS011;35067;48.134;8.378;2024-03-25T05:11:45;7.67;;;5.07;;
49235;SDS011;35067;48.134;8.378;2024-03-25T05:12:46;7.33;;;5.07;;
49235;SDS011;35067;48.134;8.378;2024-03-25T05:13:49;9.40;;;5.47;;
49235;SDS011;35067;48.134;8.378;2024-03-25T05:14:50;6.10;;;3.83;;
49235;SDS011;35067;48.134;8.378;2024-03-25T05:15:50;4.53;;;2.90;;
49235;SDS011;35067;48.134;8.378;2024-03-25T05:16:52;5.88;;;3.10;;
49235;SDS011;35067;48.134;8.378;2024-03-25T05:17:53;8.35;;;3.97;;
49235;SDS011;35067;48.134;8.378;2024-03-25T05:18:54;10.20;;;4.17;;
49235;SDS011;35067;48.134;8.378;2024-03-25T05:19:54;7.37;;;4.67;;
49235;SDS011;35067;48.134;8.378;2024-03-25T05:20:55;7.10;;;4.67;;
49235;SDS011;35067;48.134;8.378;2024-03-25T05:21:56;5.97;;;4.00;;
49235;SDS011;35067;48.134;8.378;2024-03-25T05:22:56;6.30;;;3.83;;
49235;SDS011;35067;48.134;8.378;2024-03-25T05:23:57;5.97;;;3.63;;
49235;SDS011;35067;48.134;8.378;2024-03-25T05:24:58;7.40;;;4.00;;
49235;SDS011;35067;48.134;8.378;2024-03-25T05:25:59;6.17;;;4.00;;
49235;SDS011;35067;48.134;8.378;2024-03-25T05:26:59;6.27;;;3.77;;
49235;SDS011;35067;48.134;8.378;2024-03-25T05:28:00;6.53;;;3.80;;
49235;SDS011;35067;48.134;8.378;2024-03-25T05:29:01;6.33;;;3.60;;
49235;SDS011;35067;48.134;8.378;2024-03-25T05:30:02;7.17;;;3.77;;
49235;SDS011;35067;48.134;8.378;2024-03-25T05:31:09;5.90;;;3.70;;
49235;SDS011;35067;48.134;8.378;2024-03-25T05:32:10;13.95;;;5.82;;
49235;SDS011;35067;48.134;8.378;2024-03-25T05:33:10;12.17;;;7.70;;
49235;SDS011;35067;48.134;8.378;2024-03-25T05:34:11;9.00;;;5.63;;
49235;SDS011;35067;48.134;8.378;2024-03-25T05:35:13;7.55;;;4.68;;
49235;SDS011;35067;48.134;8.378;2024-03-25T05:36:14;12.45;;;6.38;;
49235;SDS011;35067;48.134;8.378;2024-03-25T05:37:15;8.80;;;5.00;;
49235;SDS011;35067;48.134;8.378;2024-03-25T05:38:16;8.90;;;6.87;;
49235;SDS011;35067;48.134;8.378;2024-03-25T05:39:16;9.57;;;6.10;;
49235;SDS011;35067;48.134;8.378;2024-03-25T05:40:17;9.23;;;8.23;;
49235;SDS011;35067;48.134;8.378;2024-03-25T05:41:18;11.27;;;7.60;;
49235;SDS011;35067;48.134;8.378;2024-03-25T05:42:19;11.57;;;7.80;;
49235;SDS011;35067;48.134;8.378;2024-03-25T05:43:20;9.63;;;5.68;;
49235;SDS011;35067;48.134;8.378;2024-03-25T05:44:21;8.82;;;5.25;;
49235;SDS011;35067;48.134;8.378;2024-03-25T05:45:22;10.90;;;4.60;;
49235;SDS011;35067;48.134;8.378;2024-03-25T05:46:23;10.93;;;5.10;;
49235;SDS011;35067;48.134;8.378;2024-03-25T05:47:23;8.03;;;4.40;;
49235;SDS011;35067;48.134;8.378;2024-03-25T05:48:24;10.87;;;4.93;;
49235;SDS011;35067;48.134;8.378;2024-03-25T05:49:25;9.15;;;5.38;;
49235;SDS011;35067;48.134;8.378;2024-03-25T05:50:26;7.50;;;6.13;;
49235;SDS011;35067;48.134;8.378;2024-03-25T05:51:27;7.90;;;4.30;;
49235;SDS011;35067;48.134;8.378;2024-03-25T05:52:31;9.23;;;5.87;;
49235;SDS011;35067;48.134;8.378;2024-03-25T05:53:31;7.47;;;3.88;;
49235;SDS011;35067;48.134;8.378;2024-03-25T05:54:32;7.50;;;4.30;;
49235;SDS011;35067;48.134;8.378;2024-03-25T05:55:33;7.37;;;4.37;;
49235;SDS011;35067;48.134;8.378;2024-03-25T05:56:34;8.33;;;4.83;;
49235;SDS011;35067;48.134;8.378;2024-03-25T05:57:34;7.57;;;4.10;;
49235;SDS011;35067;48.134;8.378;2024-03-25T05:58:35;8.97;;;4.93;;
49235;SDS011;35067;48.134;8.378;2024-03-25T05:59:36;8.95;;;4.40;;
49235;SDS011;35067;48.134;8.378;2024-03-25T06:00:37;8.30;;;4.40;;
49235;SDS011;35067;48.134;8.378;2024-03-25T06:01:37;8.90;;;4.83;;
49235;SDS011;35067;48.134;8.378;2024-03-25T06:02:40;5.78;;;3.75;;
49235;SDS011;35067;48.134;8.378;2024-03-25T06:03:40;7.60;;;4.57;;
49235;SDS011;35067;48.134;8.378;2024-03-25T06:04:41;7.90;;;4.40;;
49235;SDS011;35067;48.134;8.378;2024-03-25T06:05:42;6.53;;;4.33;;
49235;SDS011;35067;48.134;8.378;2024-03-25T06:06:42;5.87;;;3.63;;
49235;SDS011;35067;48.134;8.378;2024-03-25T06:07:43;7.13;;;4.17;;